Sitc Xiamen — 3ELU — position and weather

sailwx.info

Track history (hours):
 
Tides and Currents Weather Stations Pressure Air Temp Water Temp Dewpoint Dewpoint Depression Visibility Wind Speed Wind Dir Waves Ship Positions

Sitc Xiamen

Last reported at 2015-Jul-06 03:06 UTC. Time now 2015-Jul-06 04:53 UTC.
Position N 29°53' E 122°03'.

Length 145 m; draft 6.3 m.

Type: Ship (hazmat cat A). MMSI: 355090000.

Date/timePositionNaut miles runAvg speedWind from/ knotsBaromVisibWave heightAir tempDewpointWater temp
2015-Jul-06 03:06N 29°53' E 122°03'0 0.0
2015-Jul-06 02:30N 29°53' E 122°03'0 0.0
2015-Jul-06 01:12N 29°53' E 122°03'0 0.0
2015-Jul-06 00:06N 29°53' E 122°03'0 0.0
2015-Jul-05 23:18N 29°53' E 122°03'0 0.0
2015-Jul-05 22:18N 29°53' E 122°03'0 0.0
2015-Jul-05 21:24N 29°53' E 122°03'0 0.0
2015-Jul-05 20:06N 29°53' E 122°03'0 0.0
2015-Jul-05 19:27N 29°53' E 122°03'6 7.0
2015-Jul-05 18:33N 29°55' E 122°10'1010.5
2015-Jul-05 17:33N 29°46' E 122°17'1010.2
2015-Jul-05 16:33N 29°47' E 122°29'1414.3
2015-Jul-05 15:33N 29°55' E 122°43'42714.7
2015-Jul-04 10:28N 33°40' E 129°50'1515.6
2015-Jul-04 09:32N 33°46' E 130°05'1614.8
2015-Jul-04 08:25N 33°55' E 130°22'2 0.1
2015-Jul-03 07:30N 33°56' E 130°24'1515.4
2015-Jul-03 06:33N 33°42' E 130°16'8 7.7
2015-Jul-03 05:32N 33°39' E 130°24'0 0.0
2015-Jul-03 04:32N 33°39' E 130°24'0 0.0
2015-Jul-03 03:29N 33°39' E 130°24'0 0.0
2015-Jul-03 02:32N 33°39' E 130°24'0 0.0
2015-Jul-03 01:32N 33°39' E 130°24'0 0.0
2015-Jul-03 00:32N 33°39' E 130°24'0 0.0
2015-Jul-02 23:32N 33°39' E 130°24'0 0.0
2015-Jul-02 22:32N 33°39' E 130°24'0 0.1
2015-Jul-02 21:33N 33°39' E 130°24'8 8.3
2015-Jul-02 20:33N 33°43' E 130°15'1313.2
2015-Jul-02 19:33N 33°42' E 129°59'23315.6
2015-Jul-02 04:33N 32°12' E 125°42'1615.6
2015-Jul-02 03:32N 32°06' E 125°25'1515.6
2015-Jul-02 02:33N 32°00' E 125°09'3214.8
2015-Jul-02 00:25N 31°48' E 124°34'1214.1
2015-Jul-01 23:34N 31°43' E 124°21'1414.2
2015-Jul-01 22:34N 31°37' E 124°06'1414.4
2015-Jul-01 21:33N 31°31' E 123°50'1514.9
2015-Jul-01 20:34N 31°26' E 123°35'1515.4
2015-Jul-01 19:33N 31°20' E 123°18'1515.1
2015-Jul-01 18:33N 31°14' E 123°01'1514.8
2015-Jul-01 17:34N 31°08' E 122°45'1515.0
2015-Jul-01 16:33N 31°06' E 122°28'1312.7
2015-Jul-01 15:33N 31°09' E 122°14'1313.0
2015-Jul-01 14:33N 31°15' E 122°00'1212.4
2015-Jul-01 13:33N 31°18' E 121°46'7 5.6
2015-Jul-01 12:24N 31°20' E 121°39'0 0.0
2015-Jul-01 11:33N 31°20' E 121°39'0 0.0
2015-Jul-01 10:33N 31°20' E 121°39'0 0.0
2015-Jul-01 09:33N 31°20' E 121°39'0 0.0
2015-Jul-01 08:33N 31°20' E 121°39'0 0.0
2015-Jul-01 07:33N 31°20' E 121°39'0 0.0
2015-Jul-01 06:30N 31°20' E 121°39'0 0.0
2015-Jul-01 05:27N 31°20' E 121°39'0 0.0
2015-Jul-01 04:33N 31°20' E 121°39'0 0.0
2015-Jul-01 03:33N 31°20' E 121°39'0 0.0
2015-Jul-01 02:33N 31°20' E 121°39'2 1.5
2015-Jul-01 01:33N 31°20' E 121°41'10 9.8
2015-Jul-01 00:33N 31°16' E 121°51'1211.9
2015-Jun-30 23:34N 31°14' E 122°05'1010.3
2015-Jun-30 22:34N 31°08' E 122°15'9 8.9
2015-Jun-30 21:33N 31°06' E 122°25'19 9.3
2015-Jun-30 19:33N 30°49' E 122°34'31 1.4
2015-Jun-29 20:29N 30°18' E 122°38'1213.0
2015-Jun-29 19:33N 30°06' E 122°36'1212.4
2015-Jun-29 18:33N 29°54' E 122°34'1313.1
2015-Jun-29 17:33N 29°43' E 122°26'1111.1
2015-Jun-29 16:33N 29°48' E 122°14'1110.8
2015-Jun-29 15:33N 29°54' E 122°04'1 0.8
2015-Jun-29 14:11N 29°53' E 122°03'0 0.0
2015-Jun-29 12:17N 29°53' E 122°03'0 0.0
2015-Jun-29 06:23N 29°53' E 122°03'2 0.7
2015-Jun-29 03:33N 29°54' E 122°05'9 8.6
2015-Jun-29 02:33N 29°50' E 122°13'9 8.8
2015-Jun-29 01:33N 29°44' E 122°22'1 0.8
2015-Jun-29 00:15N 29°45' E 122°23'0 0.0
2015-Jun-28 23:21N 29°45' E 122°23'0 0.1
2015-Jun-28 22:21N 29°45' E 122°23'0 0.0
2015-Jun-28 21:21N 29°45' E 122°23'0 0.0
2015-Jun-28 20:33N 29°45' E 122°23'0 0.0
2015-Jun-28 19:09N 29°45' E 122°23'0 0.1
2015-Jun-28 18:21N 29°45' E 122°23'0 0.1
2015-Jun-28 17:33N 29°45' E 122°23'2 2.3
2015-Jun-28 16:33N 29°46' E 122°25'1211.7
2015-Jun-28 15:33N 29°50' E 122°37'43614.4
2015-Jun-27 09:17N 33°41' E 129°53'1114.9
2015-Jun-27 08:33N 33°46' E 130°05'  
Track history (hours):
 
Tides and Currents Weather Stations Pressure Air Temp Water Temp Dewpoint Dewpoint Depression Visibility Wind Speed Wind Dir Waves Ship Positions

Sitc Xiamen

Last reported at 2015-Jul-06 03:06 UTC. Time now 2015-Jul-06 04:53 UTC.
Position N 29°53' E 122°03'.

Length 145 m; draft 6.3 m.

Type: Ship (hazmat cat A). MMSI: 355090000.

Date/timePositionNaut miles runAvg speedWind from/ knotsBaromVisibWave heightAir tempDewpointWater temp
2015-Jul-06 03:06N 29°53' E 122°03'0 0.0
2015-Jul-06 02:30N 29°53' E 122°03'0 0.0
2015-Jul-06 01:12N 29°53' E 122°03'0 0.0
2015-Jul-06 00:06N 29°53' E 122°03'0 0.0
2015-Jul-05 23:18N 29°53' E 122°03'0 0.0
2015-Jul-05 22:18N 29°53' E 122°03'0 0.0
2015-Jul-05 21:24N 29°53' E 122°03'0 0.0
2015-Jul-05 20:06N 29°53' E 122°03'0 0.0
2015-Jul-05 19:27N 29°53' E 122°03'6 7.0
2015-Jul-05 18:33N 29°55' E 122°10'1010.5
2015-Jul-05 17:33N 29°46' E 122°17'1010.2
2015-Jul-05 16:33N 29°47' E 122°29'1414.3
2015-Jul-05 15:33N 29°55' E 122°43'42714.7
2015-Jul-04 10:28N 33°40' E 129°50'1515.6
2015-Jul-04 09:32N 33°46' E 130°05'1614.8
2015-Jul-04 08:25N 33°55' E 130°22'2 0.1
2015-Jul-03 07:30N 33°56' E 130°24'1515.4
2015-Jul-03 06:33N 33°42' E 130°16'8 7.7
2015-Jul-03 05:32N 33°39' E 130°24'0 0.0
2015-Jul-03 04:32N 33°39' E 130°24'0 0.0
2015-Jul-03 03:29N 33°39' E 130°24'0 0.0
2015-Jul-03 02:32N 33°39' E 130°24'0 0.0
2015-Jul-03 01:32N 33°39' E 130°24'0 0.0
2015-Jul-03 00:32N 33°39' E 130°24'0 0.0
2015-Jul-02 23:32N 33°39' E 130°24'0 0.0
2015-Jul-02 22:32N 33°39' E 130°24'0 0.1
2015-Jul-02 21:33N 33°39' E 130°24'8 8.3
2015-Jul-02 20:33N 33°43' E 130°15'1313.2
2015-Jul-02 19:33N 33°42' E 129°59'23315.6
2015-Jul-02 04:33N 32°12' E 125°42'1615.6
2015-Jul-02 03:32N 32°06' E 125°25'1515.6
2015-Jul-02 02:33N 32°00' E 125°09'3214.8
2015-Jul-02 00:25N 31°48' E 124°34'1214.1
2015-Jul-01 23:34N 31°43' E 124°21'1414.2
2015-Jul-01 22:34N 31°37' E 124°06'1414.4
2015-Jul-01 21:33N 31°31' E 123°50'1514.9
2015-Jul-01 20:34N 31°26' E 123°35'1515.4
2015-Jul-01 19:33N 31°20' E 123°18'1515.1
2015-Jul-01 18:33N 31°14' E 123°01'1514.8
2015-Jul-01 17:34N 31°08' E 122°45'1515.0
2015-Jul-01 16:33N 31°06' E 122°28'1312.7
2015-Jul-01 15:33N 31°09' E 122°14'1313.0
2015-Jul-01 14:33N 31°15' E 122°00'1212.4
2015-Jul-01 13:33N 31°18' E 121°46'7 5.6
2015-Jul-01 12:24N 31°20' E 121°39'0 0.0
2015-Jul-01 11:33N 31°20' E 121°39'0 0.0
2015-Jul-01 10:33N 31°20' E 121°39'0 0.0
2015-Jul-01 09:33N 31°20' E 121°39'0 0.0
2015-Jul-01 08:33N 31°20' E 121°39'0 0.0
2015-Jul-01 07:33N 31°20' E 121°39'0 0.0
2015-Jul-01 06:30N 31°20' E 121°39'0 0.0
2015-Jul-01 05:27N 31°20' E 121°39'0 0.0
2015-Jul-01 04:33N 31°20' E 121°39'0 0.0
2015-Jul-01 03:33N 31°20' E 121°39'0 0.0
2015-Jul-01 02:33N 31°20' E 121°39'2 1.5
2015-Jul-01 01:33N 31°20' E 121°41'10 9.8
2015-Jul-01 00:33N 31°16' E 121°51'1211.9
2015-Jun-30 23:34N 31°14' E 122°05'1010.3
2015-Jun-30 22:34N 31°08' E 122°15'9 8.9
2015-Jun-30 21:33N 31°06' E 122°25'19 9.3
2015-Jun-30 19:33N 30°49' E 122°34'31 1.4
2015-Jun-29 20:29N 30°18' E 122°38'1213.0
2015-Jun-29 19:33N 30°06' E 122°36'1212.4
2015-Jun-29 18:33N 29°54' E 122°34'1313.1
2015-Jun-29 17:33N 29°43' E 122°26'1111.1
2015-Jun-29 16:33N 29°48' E 122°14'1110.8
2015-Jun-29 15:33N 29°54' E 122°04'1 0.8
2015-Jun-29 14:11N 29°53' E 122°03'0 0.0
2015-Jun-29 12:17N 29°53' E 122°03'0 0.0
2015-Jun-29 06:23N 29°53' E 122°03'2 0.7
2015-Jun-29 03:33N 29°54' E 122°05'9 8.6
2015-Jun-29 02:33N 29°50' E 122°13'9 8.8
2015-Jun-29 01:33N 29°44' E 122°22'1 0.8
2015-Jun-29 00:15N 29°45' E 122°23'0 0.0
2015-Jun-28 23:21N 29°45' E 122°23'0 0.1
2015-Jun-28 22:21N 29°45' E 122°23'0 0.0
2015-Jun-28 21:21N 29°45' E 122°23'0 0.0
2015-Jun-28 20:33N 29°45' E 122°23'0 0.0
2015-Jun-28 19:09N 29°45' E 122°23'0 0.1
2015-Jun-28 18:21N 29°45' E 122°23'0 0.1
2015-Jun-28 17:33N 29°45' E 122°23'2 2.3
2015-Jun-28 16:33N 29°46' E 122°25'1211.7
2015-Jun-28 15:33N 29°50' E 122°37'43614.4
2015-Jun-27 09:17N 33°41' E 129°53'1114.9
2015-Jun-27 08:33N 33°46' E 130°05'  

Dump ship's entire track history